Terminal Aerodrome Forecast
Issued by NWS

Home | Current Version | Previous Version | Text Only | Print | Product List | Glossary On
Versions: 1 2 3 4 5 6 7 8 9 10 11 12 13 14
000
FTUS45 KLKN 222324
TAFTPH
TAF
KTPH 222324Z 2300/2324 VRB06KT P6SM SCT110
     FM230200 VRB06KT P6SM BKN120
     FM230600 02009KT P6SM SCT120
     FM232100 18010G20KT P6SM VCTS BKN100CB=

USA.gov is the U.S. government's official web portal to all federal, state and local government web resources and services.